sensor_id;sensor_type;location;lat;lon;timestamp;pressure;altitude;pressure_sealevel;temperature;humidity
35419;BME280;21525;41.240;16.500;2023-02-19T00:01:20;102404.88;;;17.80;48.19
35419;BME280;21525;41.240;16.500;2023-02-19T00:03:48;102412.19;;;17.60;48.59
35419;BME280;21525;41.240;16.500;2023-02-19T00:06:17;102409.34;;;17.75;48.63
35419;BME280;21525;41.240;16.500;2023-02-19T00:08:43;102400.06;;;18.05;47.97
35419;BME280;21525;41.240;16.500;2023-02-19T00:11:20;102401.59;;;17.66;48.22
35419;BME280;21525;41.240;16.500;2023-02-19T00:13:48;102400.44;;;17.85;47.94
35419;BME280;21525;41.240;16.500;2023-02-19T00:16:16;102391.44;;;17.97;47.70
35419;BME280;21525;41.240;16.500;2023-02-19T00:18:44;102386.47;;;18.28;47.26
35419;BME280;21525;41.240;16.500;2023-02-19T00:21:10;102387.16;;;18.39;46.91
35419;BME280;21525;41.240;16.500;2023-02-19T00:23:36;102380.13;;;17.90;47.54
35419;BME280;21525;41.240;16.500;2023-02-19T00:26:04;102382.59;;;17.99;46.89
35419;BME280;21525;41.240;16.500;2023-02-19T00:28:30;102381.84;;;17.93;47.60
35419;BME280;21525;41.240;16.500;2023-02-19T00:33:31;102383.44;;;18.01;47.09
35419;BME280;21525;41.240;16.500;2023-02-19T00:36:01;102384.84;;;17.71;47.55
35419;BME280;21525;41.240;16.500;2023-02-19T00:38:27;102385.91;;;17.57;48.01
35419;BME280;21525;41.240;16.500;2023-02-19T00:40:53;102387.47;;;17.71;47.91
35419;BME280;21525;41.240;16.500;2023-02-19T00:43:21;102387.81;;;18.02;47.49
35419;BME280;21525;41.240;16.500;2023-02-19T00:45:47;102387.31;;;17.82;48.03
35419;BME280;21525;41.240;16.500;2023-02-19T00:48:13;102387.41;;;17.76;47.75
35419;BME280;21525;41.240;16.500;2023-02-19T00:50:39;102391.97;;;17.65;48.39
35419;BME280;21525;41.240;16.500;2023-02-19T00:53:04;102379.94;;;18.01;47.69
35419;BME280;21525;41.240;16.500;2023-02-19T00:55:30;102384.31;;;18.02;47.03
35419;BME280;21525;41.240;16.500;2023-02-19T00:57:56;102369.91;;;17.73;47.76
35419;BME280;21525;41.240;16.500;2023-02-19T01:00:22;102373.88;;;17.97;47.41
35419;BME280;21525;41.240;16.500;2023-02-19T01:02:48;102378.53;;;17.83;47.85
35419;BME280;21525;41.240;16.500;2023-02-19T01:05:13;102380.59;;;17.60;48.19
35419;BME280;21525;41.240;16.500;2023-02-19T01:07:39;102373.22;;;17.85;47.81
35419;BME280;21525;41.240;16.500;2023-02-19T01:10:07;102368.22;;;17.69;47.84
35419;BME280;21525;41.240;16.500;2023-02-19T01:12:32;102372.88;;;17.51;48.35
35419;BME280;21525;41.240;16.500;2023-02-19T01:14:58;102370.09;;;17.58;48.66
35419;BME280;21525;41.240;16.500;2023-02-19T01:17:24;102368.97;;;17.77;47.86
35419;BME280;21525;41.240;16.500;2023-02-19T01:19:51;102367.00;;;17.33;48.38
35419;BME280;21525;41.240;16.500;2023-02-19T01:22:16;102364.16;;;17.47;48.31
35419;BME280;21525;41.240;16.500;2023-02-19T01:24:43;102362.25;;;17.55;48.17
35419;BME280;21525;41.240;16.500;2023-02-19T01:27:09;102360.53;;;17.54;48.65
35419;BME280;21525;41.240;16.500;2023-02-19T01:29:35;102360.88;;;17.31;48.70
35419;BME280;21525;41.240;16.500;2023-02-19T01:32:01;102356.03;;;17.61;48.25
35419;BME280;21525;41.240;16.500;2023-02-19T01:34:26;102351.84;;;18.01;47.45
35419;BME280;21525;41.240;16.500;2023-02-19T01:36:54;102349.63;;;17.78;48.23
35419;BME280;21525;41.240;16.500;2023-02-19T01:39:21;102358.72;;;17.58;48.59
35419;BME280;21525;41.240;16.500;2023-02-19T01:41:46;102348.66;;;17.84;48.31
35419;BME280;21525;41.240;16.500;2023-02-19T01:46:42;102349.06;;;17.57;48.58
35419;BME280;21525;41.240;16.500;2023-02-19T01:51:50;102340.84;;;17.79;48.39
35419;BME280;21525;41.240;16.500;2023-02-19T01:54:19;102348.31;;;17.52;48.78
35419;BME280;21525;41.240;16.500;2023-02-19T01:56:47;102351.16;;;17.36;48.95
35419;BME280;21525;41.240;16.500;2023-02-19T01:59:15;102342.19;;;16.90;50.29
35419;BME280;21525;41.240;16.500;2023-02-19T02:01:42;102345.41;;;17.11;50.44
35419;BME280;21525;41.240;16.500;2023-02-19T02:04:09;102341.19;;;17.00;50.09
35419;BME280;21525;41.240;16.500;2023-02-19T02:06:47;102340.06;;;17.18;50.12
35419;BME280;21525;41.240;16.500;2023-02-19T02:09:15;102338.56;;;17.57;49.26
35419;BME280;21525;41.240;16.500;2023-02-19T02:11:59;102333.66;;;17.88;48.91
35419;BME280;21525;41.240;16.500;2023-02-19T02:14:29;102334.56;;;17.33;49.86
35419;BME280;21525;41.240;16.500;2023-02-19T02:20:00;102323.31;;;17.23;50.09
35419;BME280;21525;41.240;16.500;2023-02-19T02:26:43;102336.69;;;17.63;49.60
35419;BME280;21525;41.240;16.500;2023-02-19T02:31:22;102321.81;;;17.61;48.83
35419;BME280;21525;41.240;16.500;2023-02-19T02:36:23;102324.69;;;17.49;49.45
35419;BME280;21525;41.240;16.500;2023-02-19T02:38:52;102313.31;;;17.97;49.22
35419;BME280;21525;41.240;16.500;2023-02-19T02:41:20;102328.03;;;17.57;49.60
35419;BME280;21525;41.240;16.500;2023-02-19T02:43:46;102323.03;;;16.83;51.34
35419;BME280;21525;41.240;16.500;2023-02-19T02:46:26;102320.53;;;17.32;50.37
35419;BME280;21525;41.240;16.500;2023-02-19T02:48:56;102307.41;;;17.31;50.85
35419;BME280;21525;41.240;16.500;2023-02-19T02:51:32;102312.56;;;17.38;50.83
35419;BME280;21525;41.240;16.500;2023-02-19T02:56:58;102306.56;;;17.29;50.66
35419;BME280;21525;41.240;16.500;2023-02-19T02:59:33;102308.41;;;17.24;50.74
35419;BME280;21525;41.240;16.500;2023-02-19T03:02:09;102303.72;;;17.42;50.55
35419;BME280;21525;41.240;16.500;2023-02-19T03:10:10;102297.34;;;17.56;50.51
35419;BME280;21525;41.240;16.500;2023-02-19T03:12:39;102299.56;;;17.83;49.67
35419;BME280;21525;41.240;16.500;2023-02-19T03:15:27;102299.53;;;17.29;50.71
35419;BME280;21525;41.240;16.500;2023-02-19T03:18:15;102291.56;;;17.35;50.81
35419;BME280;21525;41.240;16.500;2023-02-19T03:21:03;102293.16;;;17.45;50.60
35419;BME280;21525;41.240;16.500;2023-02-19T03:23:31;102291.69;;;17.82;50.19
35419;BME280;21525;41.240;16.500;2023-02-19T03:26:18;102297.44;;;17.53;50.64
35419;BME280;21525;41.240;16.500;2023-02-19T03:28:50;102296.75;;;17.91;49.97
35419;BME280;21525;41.240;16.500;2023-02-19T03:31:41;102291.59;;;17.32;50.97
35419;BME280;21525;41.240;16.500;2023-02-19T03:34:10;102288.53;;;17.04;52.00
35419;BME280;21525;41.240;16.500;2023-02-19T03:36:45;102293.16;;;17.45;51.32
35419;BME280;21525;41.240;16.500;2023-02-19T03:39:16;102293.38;;;17.86;50.39
35419;BME280;21525;41.240;16.500;2023-02-19T03:47:13;102303.25;;;17.73;50.23
35419;BME280;21525;41.240;16.500;2023-02-19T03:50:33;102301.88;;;17.98;50.31
35419;BME280;21525;41.240;16.500;2023-02-19T03:53:08;102308.28;;;17.85;50.20
35419;BME280;21525;41.240;16.500;2023-02-19T03:55:50;102310.28;;;17.71;50.74
35419;BME280;21525;41.240;16.500;2023-02-19T04:00:55;102318.22;;;17.69;50.70
35419;BME280;21525;41.240;16.500;2023-02-19T04:05:52;102311.16;;;17.71;51.05
35419;BME280;21525;41.240;16.500;2023-02-19T04:08:21;102316.56;;;17.61;51.67
35419;BME280;21525;41.240;16.500;2023-02-19T04:10:53;102308.88;;;17.99;50.46
35419;BME280;21525;41.240;16.500;2023-02-19T04:13:32;102308.13;;;17.93;50.88
35419;BME280;21525;41.240;16.500;2023-02-19T04:16:03;102307.47;;;17.28;51.95
35419;BME280;21525;41.240;16.500;2023-02-19T04:18:33;102316.81;;;17.47;51.57
35419;BME280;21525;41.240;16.500;2023-02-19T04:21:02;102308.84;;;17.52;51.66
35419;BME280;21525;41.240;16.500;2023-02-19T04:23:35;102310.25;;;17.74;51.16
35419;BME280;21525;41.240;16.500;2023-02-19T04:26:03;102310.34;;;17.12;52.34
35419;BME280;21525;41.240;16.500;2023-02-19T04:28:30;102312.31;;;16.97;52.92
35419;BME280;21525;41.240;16.500;2023-02-19T04:30:56;102308.25;;;17.33;51.63
35419;BME280;21525;41.240;16.500;2023-02-19T04:33:21;102308.63;;;17.10;52.37
35419;BME280;21525;41.240;16.500;2023-02-19T04:35:47;102306.66;;;17.23;52.23
35419;BME280;21525;41.240;16.500;2023-02-19T04:38:13;102306.44;;;17.38;51.50
35419;BME280;21525;41.240;16.500;2023-02-19T04:40:39;102311.69;;;17.38;52.02
35419;BME280;21525;41.240;16.500;2023-02-19T04:43:05;102315.66;;;17.08;53.05
35419;BME280;21525;41.240;16.500;2023-02-19T04:45:31;102313.78;;;17.16;52.28
35419;BME280;21525;41.240;16.500;2023-02-19T04:47:57;102315.28;;;17.86;50.37
35419;BME280;21525;41.240;16.500;2023-02-19T04:50:23;102318.34;;;17.03;52.60
35419;BME280;21525;41.240;16.500;2023-02-19T04:52:49;102322.41;;;17.24;52.12
35419;BME280;21525;41.240;16.500;2023-02-19T04:55:15;102320.81;;;17.71;51.19
35419;BME280;21525;41.240;16.500;2023-02-19T04:57:42;102319.19;;;17.07;52.49
35419;BME280;21525;41.240;16.500;2023-02-19T05:00:08;102317.84;;;16.78;53.07
35419;BME280;21525;41.240;16.500;2023-02-19T05:02:34;102319.25;;;17.01;53.06
35419;BME280;21525;41.240;16.500;2023-02-19T05:05:00;102322.56;;;16.49;54.60
35419;BME280;21525;41.240;16.500;2023-02-19T05:07:26;102325.72;;;17.38;52.52
35419;BME280;21525;41.240;16.500;2023-02-19T05:09:51;102327.22;;;16.96;52.82
35419;BME280;21525;41.240;16.500;2023-02-19T05:12:17;102324.84;;;16.78;53.87
35419;BME280;21525;41.240;16.500;2023-02-19T05:14:44;102323.91;;;16.84;53.54
35419;BME280;21525;41.240;16.500;2023-02-19T05:17:09;102333.81;;;16.57;54.93
35419;BME280;21525;41.240;16.500;2023-02-19T05:19:35;102325.00;;;16.63;54.37
35419;BME280;21525;41.240;16.500;2023-02-19T05:22:01;102325.03;;;17.24;52.69
35419;BME280;21525;41.240;16.500;2023-02-19T05:24:26;102325.25;;;17.12;52.66
35419;BME280;21525;41.240;16.500;2023-02-19T05:26:52;102320.41;;;17.41;52.34
35419;BME280;21525;41.240;16.500;2023-02-19T05:29:18;102325.53;;;16.91;53.29
35419;BME280;21525;41.240;16.500;2023-02-19T05:31:44;102329.97;;;16.89;53.53
35419;BME280;21525;41.240;16.500;2023-02-19T05:34:10;102321.03;;;17.00;53.34
35419;BME280;21525;41.240;16.500;2023-02-19T05:36:36;102326.75;;;16.65;54.31
35419;BME280;21525;41.240;16.500;2023-02-19T05:39:02;102325.44;;;16.97;53.59
35419;BME280;21525;41.240;16.500;2023-02-19T05:41:28;102324.50;;;17.02;53.36
35419;BME280;21525;41.240;16.500;2023-02-19T05:43:56;102325.91;;;17.25;52.68
35419;BME280;21525;41.240;16.500;2023-02-19T05:46:24;102321.63;;;17.19;52.46
35419;BME280;21525;41.240;16.500;2023-02-19T05:48:51;102316.75;;;17.52;52.35
35419;BME280;21525;41.240;16.500;2023-02-19T05:51:19;102325.19;;;17.15;52.50
35419;BME280;21525;41.240;16.500;2023-02-19T05:53:45;102326.50;;;16.85;53.48
35419;BME280;21525;41.240;16.500;2023-02-19T05:56:33;102326.00;;;17.22;53.16
35419;BME280;21525;41.240;16.500;2023-02-19T05:59:21;102326.94;;;17.16;53.08
35419;BME280;21525;41.240;16.500;2023-02-19T06:01:48;102333.50;;;17.44;52.03
35419;BME280;21525;41.240;16.500;2023-02-19T06:04:14;102333.41;;;16.91;53.62
35419;BME280;21525;41.240;16.500;2023-02-19T06:06:42;102331.34;;;17.14;52.75
35419;BME280;21525;41.240;16.500;2023-02-19T06:09:08;102328.06;;;17.55;51.66
35419;BME280;21525;41.240;16.500;2023-02-19T06:11:35;102328.81;;;17.63;51.64
35419;BME280;21525;41.240;16.500;2023-02-19T06:14:02;102342.91;;;17.01;53.38
35419;BME280;21525;41.240;16.500;2023-02-19T06:16:27;102328.16;;;17.51;51.92
35419;BME280;21525;41.240;16.500;2023-02-19T06:18:53;102338.03;;;16.75;53.99
35419;BME280;21525;41.240;16.500;2023-02-19T06:21:19;102336.91;;;17.53;51.99
35419;BME280;21525;41.240;16.500;2023-02-19T06:23:45;102329.72;;;18.13;50.89
35419;BME280;21525;41.240;16.500;2023-02-19T06:26:22;102332.41;;;18.53;49.88
35419;BME280;21525;41.240;16.500;2023-02-19T06:28:50;102329.91;;;18.47;50.13
35419;BME280;21525;41.240;16.500;2023-02-19T06:31:18;102321.97;;;20.31;46.29
35419;BME280;21525;41.240;16.500;2023-02-19T06:33:44;102317.75;;;22.18;42.01
35419;BME280;21525;41.240;16.500;2023-02-19T06:36:14;102324.28;;;23.02;40.23
35419;BME280;21525;41.240;16.500;2023-02-19T06:38:40;102321.59;;;24.29;38.34
35419;BME280;21525;41.240;16.500;2023-02-19T06:41:07;102324.81;;;25.65;36.24
35419;BME280;21525;41.240;16.500;2023-02-19T06:43:34;102316.41;;;25.90;35.49
35419;BME280;21525;41.240;16.500;2023-02-19T06:46:02;102311.34;;;27.15;33.38
35419;BME280;21525;41.240;16.500;2023-02-19T06:48:30;102310.06;;;25.93;34.85
35419;BME280;21525;41.240;16.500;2023-02-19T06:50:56;102307.28;;;26.44;34.10
35419;BME280;21525;41.240;16.500;2023-02-19T06:53:22;102309.47;;;27.47;32.95
35419;BME280;21525;41.240;16.500;2023-02-19T06:56:06;102309.63;;;27.14;32.82
35419;BME280;21525;41.240;16.500;2023-02-19T06:58:33;102302.75;;;27.55;32.75
35419;BME280;21525;41.240;16.500;2023-02-19T07:00:59;102310.59;;;27.42;32.10
35419;BME280;21525;41.240;16.500;2023-02-19T07:03:25;102299.00;;;29.14;30.88
35419;BME280;21525;41.240;16.500;2023-02-19T07:05:51;102287.88;;;29.98;29.46
35419;BME280;21525;41.240;16.500;2023-02-19T07:08:17;102301.06;;;28.41;31.35
35419;BME280;21525;41.240;16.500;2023-02-19T07:10:53;102294.66;;;28.29;31.03
35419;BME280;21525;41.240;16.500;2023-02-19T07:13:20;102303.53;;;28.30;30.88
35419;BME280;21525;41.240;16.500;2023-02-19T07:15:45;102296.22;;;28.60;30.87
35419;BME280;21525;41.240;16.500;2023-02-19T07:18:11;102293.56;;;29.68;29.88
35419;BME280;21525;41.240;16.500;2023-02-19T07:20:37;102298.09;;;31.17;28.32
35419;BME280;21525;41.240;16.500;2023-02-19T07:23:03;102291.94;;;30.41;28.60
35419;BME280;21525;41.240;16.500;2023-02-19T07:25:28;102288.25;;;30.19;29.16
35419;BME280;21525;41.240;16.500;2023-02-19T07:27:54;102294.31;;;30.46;28.65
35419;BME280;21525;41.240;16.500;2023-02-19T07:30:20;102300.78;;;30.80;28.55
35419;BME280;21525;41.240;16.500;2023-02-19T07:32:46;102289.41;;;31.48;28.20
35419;BME280;21525;41.240;16.500;2023-02-19T07:35:13;102293.13;;;31.34;27.83
35419;BME280;21525;41.240;16.500;2023-02-19T07:37:39;102284.50;;;31.53;28.03
35419;BME280;21525;41.240;16.500;2023-02-19T07:40:06;102281.31;;;32.17;27.34
35419;BME280;21525;41.240;16.500;2023-02-19T07:42:31;102278.63;;;31.94;27.89
35419;BME280;21525;41.240;16.500;2023-02-19T07:44:58;102269.59;;;32.29;26.67
35419;BME280;21525;41.240;16.500;2023-02-19T07:47:24;102276.94;;;32.16;27.81
35419;BME280;21525;41.240;16.500;2023-02-19T07:49:50;102279.44;;;32.73;26.93
35419;BME280;21525;41.240;16.500;2023-02-19T07:52:15;102275.72;;;32.96;26.52
35419;BME280;21525;41.240;16.500;2023-02-19T07:54:41;102275.41;;;32.67;26.68
35419;BME280;21525;41.240;16.500;2023-02-19T07:57:07;102281.06;;;32.76;26.60
35419;BME280;21525;41.240;16.500;2023-02-19T07:59:33;102277.88;;;31.81;26.93
35419;BME280;21525;41.240;16.500;2023-02-19T08:01:59;102272.28;;;33.26;26.38
35419;BME280;21525;41.240;16.500;2023-02-19T08:04:46;102274.44;;;33.44;25.51
35419;BME280;21525;41.240;16.500;2023-02-19T08:07:12;102282.03;;;35.10;24.21
35419;BME280;21525;41.240;16.500;2023-02-19T08:09:37;102277.13;;;32.57;26.40
35419;BME280;21525;41.240;16.500;2023-02-19T08:12:03;102266.34;;;33.12;25.73
35419;BME280;21525;41.240;16.500;2023-02-19T08:14:48;102274.31;;;32.81;26.45
35419;BME280;21525;41.240;16.500;2023-02-19T08:17:13;102271.50;;;35.46;24.15
35419;BME280;21525;41.240;16.500;2023-02-19T08:19:39;102266.00;;;34.40;24.64
35419;BME280;21525;41.240;16.500;2023-02-19T08:22:05;102263.59;;;34.16;25.27
35419;BME280;21525;41.240;16.500;2023-02-19T08:24:31;102273.25;;;33.04;26.08
35419;BME280;21525;41.240;16.500;2023-02-19T08:26:58;102263.19;;;32.75;26.01
35419;BME280;21525;41.240;16.500;2023-02-19T08:29:24;102259.47;;;33.60;24.84
35419;BME280;21525;41.240;16.500;2023-02-19T08:31:49;102265.94;;;33.27;25.58
35419;BME280;21525;41.240;16.500;2023-02-19T08:34:15;102261.63;;;32.27;26.36
35419;BME280;21525;41.240;16.500;2023-02-19T08:36:41;102263.84;;;31.54;26.64
35419;BME280;21525;41.240;16.500;2023-02-19T08:39:08;102262.59;;;31.35;27.26
35419;BME280;21525;41.240;16.500;2023-02-19T08:41:34;102267.19;;;30.74;27.86
35419;BME280;21525;41.240;16.500;2023-02-19T08:44:00;102260.06;;;29.08;29.59
35419;BME280;21525;41.240;16.500;2023-02-19T08:46:26;102275.28;;;27.67;31.22
35419;BME280;21525;41.240;16.500;2023-02-19T08:48:52;102278.50;;;28.31;30.39
35419;BME280;21525;41.240;16.500;2023-02-19T08:51:18;102270.59;;;28.70;30.76
35419;BME280;21525;41.240;16.500;2023-02-19T08:53:44;102276.50;;;28.75;30.46
35419;BME280;21525;41.240;16.500;2023-02-19T08:56:12;102272.13;;;28.74;30.33
35419;BME280;21525;41.240;16.500;2023-02-19T08:58:39;102270.47;;;28.17;31.46
35419;BME280;21525;41.240;16.500;2023-02-19T09:01:09;102272.28;;;28.59;30.80
35419;BME280;21525;41.240;16.500;2023-02-19T09:03:36;102271.81;;;27.21;31.71
35419;BME280;21525;41.240;16.500;2023-02-19T09:06:02;102263.50;;;28.14;31.21
35419;BME280;21525;41.240;16.500;2023-02-19T09:08:28;102263.13;;;28.20;31.49
35419;BME280;21525;41.240;16.500;2023-02-19T09:11:01;102259.59;;;27.91;31.40
35419;BME280;21525;41.240;16.500;2023-02-19T09:13:28;102257.88;;;27.90;31.38
35419;BME280;21525;41.240;16.500;2023-02-19T09:15:55;102256.44;;;27.55;31.69
35419;BME280;21525;41.240;16.500;2023-02-19T09:18:22;102249.16;;;28.01;31.38
35419;BME280;21525;41.240;16.500;2023-02-19T09:20:48;102252.50;;;28.33;31.30
35419;BME280;21525;41.240;16.500;2023-02-19T09:23:14;102247.59;;;27.68;31.55
35419;BME280;21525;41.240;16.500;2023-02-19T09:25:40;102247.25;;;27.89;31.76
35419;BME280;21525;41.240;16.500;2023-02-19T09:28:06;102244.22;;;27.51;32.14
35419;BME280;21525;41.240;16.500;2023-02-19T09:30:32;102240.75;;;27.79;31.66
35419;BME280;21525;41.240;16.500;2023-02-19T09:32:57;102245.72;;;27.99;32.18
35419;BME280;21525;41.240;16.500;2023-02-19T09:35:23;102238.38;;;28.17;31.50
35419;BME280;21525;41.240;16.500;2023-02-19T09:37:49;102236.84;;;27.84;31.88
35419;BME280;21525;41.240;16.500;2023-02-19T09:40:15;102243.31;;;27.94;31.30
35419;BME280;21525;41.240;16.500;2023-02-19T09:42:47;102236.66;;;27.43;31.98
35419;BME280;21525;41.240;16.500;2023-02-19T09:45:24;102233.28;;;27.25;31.66
35419;BME280;21525;41.240;16.500;2023-02-19T09:47:57;102230.97;;;27.19;31.91
35419;BME280;21525;41.240;16.500;2023-02-19T09:50:33;102225.78;;;27.46;31.51
35419;BME280;21525;41.240;16.500;2023-02-19T09:53:03;102228.94;;;27.53;31.45
35419;BME280;21525;41.240;16.500;2023-02-19T09:55:33;102222.91;;;27.93;31.67
35419;BME280;21525;41.240;16.500;2023-02-19T09:59:03;102219.50;;;28.47;31.31
35419;BME280;21525;41.240;16.500;2023-02-19T10:01:10;102211.50;;;28.32;31.22
35419;BME280;21525;41.240;16.500;2023-02-19T10:03:38;102214.00;;;27.34;32.04
35419;BME280;21525;41.240;16.500;2023-02-19T10:06:20;102213.69;;;26.79;32.17
35419;BME280;21525;41.240;16.500;2023-02-19T10:08:50;102213.19;;;27.48;31.52
35419;BME280;21525;41.240;16.500;2023-02-19T10:11:17;102218.78;;;28.02;30.99
35419;BME280;21525;41.240;16.500;2023-02-19T10:13:50;102223.63;;;28.38;31.22
35419;BME280;21525;41.240;16.500;2023-02-19T10:16:24;102213.66;;;28.54;32.00
35419;BME280;21525;41.240;16.500;2023-02-19T10:18:51;102225.47;;;27.81;33.21
35419;BME280;21525;41.240;16.500;2023-02-19T10:21:19;102211.81;;;27.99;33.27
35419;BME280;21525;41.240;16.500;2023-02-19T10:24:06;102210.47;;;28.06;33.82
35419;BME280;21525;41.240;16.500;2023-02-19T10:26:33;102209.88;;;28.30;33.32
35419;BME280;21525;41.240;16.500;2023-02-19T10:29:02;102196.91;;;28.09;33.72
35419;BME280;21525;41.240;16.500;2023-02-19T10:31:32;102198.72;;;27.66;34.38
35419;BME280;21525;41.240;16.500;2023-02-19T10:33:59;102193.88;;;27.87;34.11
35419;BME280;21525;41.240;16.500;2023-02-19T10:36:35;102188.03;;;26.92;34.61
35419;BME280;21525;41.240;16.500;2023-02-19T10:42:01;102189.88;;;25.80;37.00
35419;BME280;21525;41.240;16.500;2023-02-19T10:44:32;102187.13;;;25.82;37.33
35419;BME280;21525;41.240;16.500;2023-02-19T10:47:01;102178.88;;;25.86;37.25
35419;BME280;21525;41.240;16.500;2023-02-19T10:52:00;102176.91;;;25.39;38.06
35419;BME280;21525;41.240;16.500;2023-02-19T10:54:30;102170.88;;;25.53;37.73
35419;BME280;21525;41.240;16.500;2023-02-19T11:02:43;102178.09;;;26.33;36.42
35419;BME280;21525;41.240;16.500;2023-02-19T11:07:56;102175.25;;;24.49;39.39
35419;BME280;21525;41.240;16.500;2023-02-19T11:12:53;102162.91;;;25.19;39.12
35419;BME280;21525;41.240;16.500;2023-02-19T11:15:27;102161.28;;;24.80;40.07
35419;BME280;21525;41.240;16.500;2023-02-19T11:20:56;102156.13;;;24.41;41.32
35419;BME280;21525;41.240;16.500;2023-02-19T11:23:30;102144.72;;;24.92;40.20
35419;BME280;21525;41.240;16.500;2023-02-19T11:26:02;102142.81;;;24.96;40.32
35419;BME280;21525;41.240;16.500;2023-02-19T11:28:38;102154.56;;;25.42;39.30
35419;BME280;21525;41.240;16.500;2023-02-19T11:31:32;102158.53;;;24.64;40.12
35419;BME280;21525;41.240;16.500;2023-02-19T11:36:33;102149.38;;;25.23;39.31
35419;BME280;21525;41.240;16.500;2023-02-19T11:53:26;102131.88;;;24.66;40.74
35419;BME280;21525;41.240;16.500;2023-02-19T12:03:48;102129.97;;;22.74;43.36
35419;BME280;21525;41.240;16.500;2023-02-19T12:06:28;102130.25;;;23.69;42.60
35419;BME280;21525;41.240;16.500;2023-02-19T12:17:16;102121.38;;;23.89;41.60
35419;BME280;21525;41.240;16.500;2023-02-19T12:20:02;102118.97;;;23.64;41.86
35419;BME280;21525;41.240;16.500;2023-02-19T12:22:32;102126.34;;;22.09;44.79
35419;BME280;21525;41.240;16.500;2023-02-19T12:30:40;102115.09;;;23.32;42.17
35419;BME280;21525;41.240;16.500;2023-02-19T12:36:02;102099.38;;;23.67;40.77
35419;BME280;21525;41.240;16.500;2023-02-19T12:38:37;102100.00;;;23.72;40.46
35419;BME280;21525;41.240;16.500;2023-02-19T12:44:08;102084.34;;;23.27;41.00
35419;BME280;21525;41.240;16.500;2023-02-19T12:46:39;102080.66;;;23.50;40.57
35419;BME280;21525;41.240;16.500;2023-02-19T12:49:12;102083.66;;;23.03;41.63
35419;BME280;21525;41.240;16.500;2023-02-19T12:52:02;102084.97;;;22.93;42.18
35419;BME280;21525;41.240;16.500;2023-02-19T12:54:53;102078.59;;;22.55;42.69
35419;BME280;21525;41.240;16.500;2023-02-19T12:57:26;102077.78;;;22.53;43.19
35419;BME280;21525;41.240;16.500;2023-02-19T13:02:32;102077.25;;;22.44;43.96
35419;BME280;21525;41.240;16.500;2023-02-19T13:05:07;102073.78;;;22.42;44.47
35419;BME280;21525;41.240;16.500;2023-02-19T13:10:29;102078.06;;;23.29;42.90
35419;BME280;21525;41.240;16.500;2023-02-19T13:13:00;102077.28;;;22.87;43.97
35419;BME280;21525;41.240;16.500;2023-02-19T13:15:34;102069.06;;;22.93;43.52
35419;BME280;21525;41.240;16.500;2023-02-19T13:18:02;102055.25;;;23.44;43.14
35419;BME280;21525;41.240;16.500;2023-02-19T13:20:32;102061.56;;;23.41;42.98
35419;BME280;21525;41.240;16.500;2023-02-19T13:31:11;102055.91;;;23.49;42.90
35419;BME280;21525;41.240;16.500;2023-02-19T13:36:24;102058.88;;;23.23;43.82
35419;BME280;21525;41.240;16.500;2023-02-19T13:38:51;102055.91;;;22.48;44.72
35419;BME280;21525;41.240;16.500;2023-02-19T13:41:20;102059.28;;;23.13;43.79
35419;BME280;21525;41.240;16.500;2023-02-19T13:44:17;102068.28;;;22.05;45.16
35419;BME280;21525;41.240;16.500;2023-02-19T13:46:45;102066.50;;;22.05;45.03
35419;BME280;21525;41.240;16.500;2023-02-19T13:59:47;102054.25;;;21.78;46.81
35419;BME280;21525;41.240;16.500;2023-02-19T14:19:53;102072.00;;;21.04;51.98
35419;BME280;21525;41.240;16.500;2023-02-19T14:27:53;102079.03;;;19.97;55.59
35419;BME280;21525;41.240;16.500;2023-02-19T14:30:22;102077.13;;;21.34;51.83
35419;BME280;21525;41.240;16.500;2023-02-19T14:32:49;102075.41;;;20.29;54.89
35419;BME280;21525;41.240;16.500;2023-02-19T14:35:19;102072.41;;;20.67;54.79
35419;BME280;21525;41.240;16.500;2023-02-19T14:37:48;102063.97;;;21.07;52.64
35419;BME280;21525;41.240;16.500;2023-02-19T14:40:29;102073.81;;;19.66;57.04
35419;BME280;21525;41.240;16.500;2023-02-19T14:42:58;102079.66;;;19.46;57.97
35419;BME280;21525;41.240;16.500;2023-02-19T14:45:27;102072.19;;;20.73;54.59
35419;BME280;21525;41.240;16.500;2023-02-19T14:47:55;102070.88;;;20.85;54.65
35419;BME280;21525;41.240;16.500;2023-02-19T14:50:29;102077.03;;;19.46;61.03
35419;BME280;21525;41.240;16.500;2023-02-19T14:53:02;102072.84;;;19.98;57.16
35419;BME280;21525;41.240;16.500;2023-02-19T14:55:31;102082.59;;;20.24;55.86
35419;BME280;21525;41.240;16.500;2023-02-19T14:58:02;102082.91;;;18.91;61.83
35419;BME280;21525;41.240;16.500;2023-02-19T15:00:49;102083.38;;;19.39;61.58
35419;BME280;21525;41.240;16.500;2023-02-19T15:03:29;102080.47;;;19.79;60.02
35419;BME280;21525;41.240;16.500;2023-02-19T15:08:31;102078.88;;;20.84;55.76
35419;BME280;21525;41.240;16.500;2023-02-19T15:10:57;102077.56;;;20.16;56.99
35419;BME280;21525;41.240;16.500;2023-02-19T15:13:28;102071.47;;;20.14;57.12
35419;BME280;21525;41.240;16.500;2023-02-19T15:15:55;102069.34;;;20.53;57.71
35419;BME280;21525;41.240;16.500;2023-02-19T15:18:23;102067.34;;;20.05;58.18
35419;BME280;21525;41.240;16.500;2023-02-19T15:20:50;102062.69;;;20.13;58.15
35419;BME280;21525;41.240;16.500;2023-02-19T15:23:23;102061.19;;;21.10;55.25
35419;BME280;21525;41.240;16.500;2023-02-19T15:25:51;102064.47;;;20.41;56.66
35419;BME280;21525;41.240;16.500;2023-02-19T15:31:03;102082.03;;;18.90;62.30